sensor_id;sensor_type;location;lat;lon;timestamp;temperature;humidity
12436;DHT22;6282;51.440;6.938;2023-05-10T00:00:08;13.80;99.90
12436;DHT22;6282;51.440;6.938;2023-05-10T00:02:36;13.80;99.90
12436;DHT22;6282;51.440;6.938;2023-05-10T00:05:03;13.90;99.90
12436;DHT22;6282;51.440;6.938;2023-05-10T00:07:31;13.90;99.90
12436;DHT22;6282;51.440;6.938;2023-05-10T00:09:58;13.90;99.90
12436;DHT22;6282;51.440;6.938;2023-05-10T00:12:25;13.90;99.90
12436;DHT22;6282;51.440;6.938;2023-05-10T00:14:52;14.00;99.90
12436;DHT22;6282;51.440;6.938;2023-05-10T00:17:18;14.00;99.90
12436;DHT22;6282;51.440;6.938;2023-05-10T00:19:45;13.90;99.90
12436;DHT22;6282;51.440;6.938;2023-05-10T00:22:12;13.90;99.90
12436;DHT22;6282;51.440;6.938;2023-05-10T00:24:40;14.10;99.90
12436;DHT22;6282;51.440;6.938;2023-05-10T00:27:07;14.00;99.90
12436;DHT22;6282;51.440;6.938;2023-05-10T00:29:34;13.80;99.90
12436;DHT22;6282;51.440;6.938;2023-05-10T00:32:00;13.80;99.90
12436;DHT22;6282;51.440;6.938;2023-05-10T00:34:27;13.80;99.90
12436;DHT22;6282;51.440;6.938;2023-05-10T00:36:54;13.90;99.90
12436;DHT22;6282;51.440;6.938;2023-05-10T00:39:21;13.90;99.90
12436;DHT22;6282;51.440;6.938;2023-05-10T00:41:49;14.00;99.90
12436;DHT22;6282;51.440;6.938;2023-05-10T00:44:16;14.00;99.90
12436;DHT22;6282;51.440;6.938;2023-05-10T00:46:43;14.10;99.90
12436;DHT22;6282;51.440;6.938;2023-05-10T00:49:11;14.20;99.90
12436;DHT22;6282;51.440;6.938;2023-05-10T00:51:38;13.90;99.90
12436;DHT22;6282;51.440;6.938;2023-05-10T00:54:05;14.20;99.90
12436;DHT22;6282;51.440;6.938;2023-05-10T00:56:32;14.00;99.90
12436;DHT22;6282;51.440;6.938;2023-05-10T00:59:00;13.60;99.90
12436;DHT22;6282;51.440;6.938;2023-05-10T01:01:27;13.60;99.90
12436;DHT22;6282;51.440;6.938;2023-05-10T01:03:55;13.50;99.90
12436;DHT22;6282;51.440;6.938;2023-05-10T01:06:22;13.70;99.90
12436;DHT22;6282;51.440;6.938;2023-05-10T01:08:49;13.80;99.90
12436;DHT22;6282;51.440;6.938;2023-05-10T01:11:16;13.90;99.90
12436;DHT22;6282;51.440;6.938;2023-05-10T01:13:47;13.70;99.90
12436;DHT22;6282;51.440;6.938;2023-05-10T01:16:18;13.60;99.90
12436;DHT22;6282;51.440;6.938;2023-05-10T01:18:45;13.60;99.90
12436;DHT22;6282;51.440;6.938;2023-05-10T01:21:19;13.70;99.90
12436;DHT22;6282;51.440;6.938;2023-05-10T01:27:19;13.60;99.90
12436;DHT22;6282;51.440;6.938;2023-05-10T01:30:08;13.40;99.90
12436;DHT22;6282;51.440;6.938;2023-05-10T01:32:48;13.60;99.90
12436;DHT22;6282;51.440;6.938;2023-05-10T01:35:20;13.30;99.90
12436;DHT22;6282;51.440;6.938;2023-05-10T01:37:55;13.40;99.90
12436;DHT22;6282;51.440;6.938;2023-05-10T01:40:29;13.20;99.90
12436;DHT22;6282;51.440;6.938;2023-05-10T01:43:00;13.50;99.90
12436;DHT22;6282;51.440;6.938;2023-05-10T01:45:31;13.60;99.90
12436;DHT22;6282;51.440;6.938;2023-05-10T01:48:05;13.50;99.90
12436;DHT22;6282;51.440;6.938;2023-05-10T01:50:35;13.40;99.90
12436;DHT22;6282;51.440;6.938;2023-05-10T01:53:06;13.60;99.90
12436;DHT22;6282;51.440;6.938;2023-05-10T01:55:43;13.40;99.90
12436;DHT22;6282;51.440;6.938;2023-05-10T01:58:13;13.70;99.90
12436;DHT22;6282;51.440;6.938;2023-05-10T02:00:43;13.50;99.90
12436;DHT22;6282;51.440;6.938;2023-05-10T02:03:13;13.70;99.90
12436;DHT22;6282;51.440;6.938;2023-05-10T02:05:41;13.40;99.90
12436;DHT22;6282;51.440;6.938;2023-05-10T02:08:10;13.50;99.90
12436;DHT22;6282;51.440;6.938;2023-05-10T02:10:37;13.40;99.90
12436;DHT22;6282;51.440;6.938;2023-05-10T02:13:07;13.40;99.90
12436;DHT22;6282;51.440;6.938;2023-05-10T02:15:34;13.50;99.90
12436;DHT22;6282;51.440;6.938;2023-05-10T02:18:04;13.60;99.90
12436;DHT22;6282;51.440;6.938;2023-05-10T02:20:34;13.40;99.90
12436;DHT22;6282;51.440;6.938;2023-05-10T02:23:02;13.40;99.90
12436;DHT22;6282;51.440;6.938;2023-05-10T02:25:30;13.60;99.90
12436;DHT22;6282;51.440;6.938;2023-05-10T02:28:00;13.80;99.90
12436;DHT22;6282;51.440;6.938;2023-05-10T02:30:28;13.80;99.90
12436;DHT22;6282;51.440;6.938;2023-05-10T02:32:55;13.70;99.90
12436;DHT22;6282;51.440;6.938;2023-05-10T02:35:23;13.70;99.90
12436;DHT22;6282;51.440;6.938;2023-05-10T02:37:52;13.70;99.90
12436;DHT22;6282;51.440;6.938;2023-05-10T02:40:21;13.50;99.90
12436;DHT22;6282;51.440;6.938;2023-05-10T02:42:50;13.50;99.90
12436;DHT22;6282;51.440;6.938;2023-05-10T02:45:22;13.60;99.90
12436;DHT22;6282;51.440;6.938;2023-05-10T02:47:50;13.70;99.90
12436;DHT22;6282;51.440;6.938;2023-05-10T02:50:17;13.80;99.90
12436;DHT22;6282;51.440;6.938;2023-05-10T02:52:47;13.60;99.90
12436;DHT22;6282;51.440;6.938;2023-05-10T02:55:16;13.60;99.90
12436;DHT22;6282;51.440;6.938;2023-05-10T02:57:50;13.70;99.90
12436;DHT22;6282;51.440;6.938;2023-05-10T03:00:18;13.70;99.90
12436;DHT22;6282;51.440;6.938;2023-05-10T03:02:45;13.70;99.90
12436;DHT22;6282;51.440;6.938;2023-05-10T03:05:12;13.60;99.90
12436;DHT22;6282;51.440;6.938;2023-05-10T03:07:39;13.40;99.90
12436;DHT22;6282;51.440;6.938;2023-05-10T03:10:07;13.20;99.90
12436;DHT22;6282;51.440;6.938;2023-05-10T03:12:47;13.20;99.90
12436;DHT22;6282;51.440;6.938;2023-05-10T03:15:29;13.40;99.90
12436;DHT22;6282;51.440;6.938;2023-05-10T03:18:03;13.30;99.90
12436;DHT22;6282;51.440;6.938;2023-05-10T03:20:36;13.10;99.90
12436;DHT22;6282;51.440;6.938;2023-05-10T03:23:10;13.30;99.90
12436;DHT22;6282;51.440;6.938;2023-05-10T03:25:40;13.20;99.90
12436;DHT22;6282;51.440;6.938;2023-05-10T03:28:11;13.10;99.90
12436;DHT22;6282;51.440;6.938;2023-05-10T03:30:39;13.30;99.90
12436;DHT22;6282;51.440;6.938;2023-05-10T03:33:07;13.20;99.90
12436;DHT22;6282;51.440;6.938;2023-05-10T03:35:34;13.10;99.90
12436;DHT22;6282;51.440;6.938;2023-05-10T03:38:01;13.30;99.90
12436;DHT22;6282;51.440;6.938;2023-05-10T03:40:28;12.90;99.90
12436;DHT22;6282;51.440;6.938;2023-05-10T03:42:57;13.00;99.90
12436;DHT22;6282;51.440;6.938;2023-05-10T03:45:25;12.90;99.90
12436;DHT22;6282;51.440;6.938;2023-05-10T03:47:52;12.90;99.90
12436;DHT22;6282;51.440;6.938;2023-05-10T03:50:19;12.90;99.90
12436;DHT22;6282;51.440;6.938;2023-05-10T03:52:46;13.00;99.90
12436;DHT22;6282;51.440;6.938;2023-05-10T03:55:13;13.20;99.90
12436;DHT22;6282;51.440;6.938;2023-05-10T03:57:40;13.40;99.90
12436;DHT22;6282;51.440;6.938;2023-05-10T04:00:07;13.40;99.90
12436;DHT22;6282;51.440;6.938;2023-05-10T04:02:36;13.20;99.90
12436;DHT22;6282;51.440;6.938;2023-05-10T04:05:03;13.30;99.90
12436;DHT22;6282;51.440;6.938;2023-05-10T04:07:30;13.50;99.90
12436;DHT22;6282;51.440;6.938;2023-05-10T04:09:57;13.60;99.90
12436;DHT22;6282;51.440;6.938;2023-05-10T04:12:24;13.40;99.90
12436;DHT22;6282;51.440;6.938;2023-05-10T04:14:51;13.40;99.90
12436;DHT22;6282;51.440;6.938;2023-05-10T04:17:17;13.40;99.90
12436;DHT22;6282;51.440;6.938;2023-05-10T04:19:46;13.40;99.90
12436;DHT22;6282;51.440;6.938;2023-05-10T04:22:12;13.40;99.90
12436;DHT22;6282;51.440;6.938;2023-05-10T04:24:39;13.60;99.90
12436;DHT22;6282;51.440;6.938;2023-05-10T04:27:06;13.50;99.90
12436;DHT22;6282;51.440;6.938;2023-05-10T04:29:33;13.50;99.90
12436;DHT22;6282;51.440;6.938;2023-05-10T04:31:59;13.40;99.90
12436;DHT22;6282;51.440;6.938;2023-05-10T04:34:26;13.40;99.90
12436;DHT22;6282;51.440;6.938;2023-05-10T04:36:54;13.30;99.90
12436;DHT22;6282;51.440;6.938;2023-05-10T04:39:21;13.10;99.90
12436;DHT22;6282;51.440;6.938;2023-05-10T04:41:48;13.40;99.90
12436;DHT22;6282;51.440;6.938;2023-05-10T04:44:14;13.60;99.90
12436;DHT22;6282;51.440;6.938;2023-05-10T04:46:41;13.50;99.90
12436;DHT22;6282;51.440;6.938;2023-05-10T04:49:08;13.60;99.90
12436;DHT22;6282;51.440;6.938;2023-05-10T04:51:35;13.60;99.90
12436;DHT22;6282;51.440;6.938;2023-05-10T04:54:03;13.60;99.90
12436;DHT22;6282;51.440;6.938;2023-05-10T04:56:30;13.60;99.90
12436;DHT22;6282;51.440;6.938;2023-05-10T04:58:56;13.70;99.90
12436;DHT22;6282;51.440;6.938;2023-05-10T05:01:23;13.70;99.90
12436;DHT22;6282;51.440;6.938;2023-05-10T05:03:50;13.50;99.90
12436;DHT22;6282;51.440;6.938;2023-05-10T05:06:18;13.60;99.90
12436;DHT22;6282;51.440;6.938;2023-05-10T05:08:46;13.70;99.90
12436;DHT22;6282;51.440;6.938;2023-05-10T05:11:16;13.70;99.90
12436;DHT22;6282;51.440;6.938;2023-05-10T05:13:43;13.60;99.90
12436;DHT22;6282;51.440;6.938;2023-05-10T05:16:10;13.60;99.90
12436;DHT22;6282;51.440;6.938;2023-05-10T05:18:38;13.70;99.90
12436;DHT22;6282;51.440;6.938;2023-05-10T05:21:13;13.90;99.90
12436;DHT22;6282;51.440;6.938;2023-05-10T05:23:40;14.20;99.90
12436;DHT22;6282;51.440;6.938;2023-05-10T05:26:07;13.80;99.90
12436;DHT22;6282;51.440;6.938;2023-05-10T05:28:35;13.90;99.90
12436;DHT22;6282;51.440;6.938;2023-05-10T05:31:03;13.70;99.90
12436;DHT22;6282;51.440;6.938;2023-05-10T05:33:29;13.90;99.90
12436;DHT22;6282;51.440;6.938;2023-05-10T05:35:56;14.00;99.90
12436;DHT22;6282;51.440;6.938;2023-05-10T05:38:23;14.00;99.90
12436;DHT22;6282;51.440;6.938;2023-05-10T05:40:50;13.80;99.90
12436;DHT22;6282;51.440;6.938;2023-05-10T05:43:17;14.00;99.90
12436;DHT22;6282;51.440;6.938;2023-05-10T05:45:45;13.90;99.90
12436;DHT22;6282;51.440;6.938;2023-05-10T05:48:12;14.00;99.90
12436;DHT22;6282;51.440;6.938;2023-05-10T05:50:38;14.00;99.90
12436;DHT22;6282;51.440;6.938;2023-05-10T05:53:05;13.90;99.90
12436;DHT22;6282;51.440;6.938;2023-05-10T05:55:32;13.80;99.90
12436;DHT22;6282;51.440;6.938;2023-05-10T05:57:59;13.90;99.90
12436;DHT22;6282;51.440;6.938;2023-05-10T06:00:26;13.90;99.90
12436;DHT22;6282;51.440;6.938;2023-05-10T06:02:54;13.90;99.90
12436;DHT22;6282;51.440;6.938;2023-05-10T06:05:21;13.80;99.90
12436;DHT22;6282;51.440;6.938;2023-05-10T06:07:48;14.00;99.90
12436;DHT22;6282;51.440;6.938;2023-05-10T06:10:15;14.00;99.90
12436;DHT22;6282;51.440;6.938;2023-05-10T06:12:42;14.00;99.90
12436;DHT22;6282;51.440;6.938;2023-05-10T06:15:10;13.80;99.90
12436;DHT22;6282;51.440;6.938;2023-05-10T06:17:36;13.90;99.90
12436;DHT22;6282;51.440;6.938;2023-05-10T06:20:06;14.00;99.90
12436;DHT22;6282;51.440;6.938;2023-05-10T06:22:34;13.90;99.90
12436;DHT22;6282;51.440;6.938;2023-05-10T06:25:00;13.90;99.90
12436;DHT22;6282;51.440;6.938;2023-05-10T06:27:28;14.20;99.90
12436;DHT22;6282;51.440;6.938;2023-05-10T06:29:54;14.40;99.90
12436;DHT22;6282;51.440;6.938;2023-05-10T06:32:21;14.20;99.90
12436;DHT22;6282;51.440;6.938;2023-05-10T06:34:48;14.30;99.90
12436;DHT22;6282;51.440;6.938;2023-05-10T06:37:16;14.20;99.90
12436;DHT22;6282;51.440;6.938;2023-05-10T06:39:43;14.00;99.90
12436;DHT22;6282;51.440;6.938;2023-05-10T06:42:10;14.30;99.90
12436;DHT22;6282;51.440;6.938;2023-05-10T06:44:37;14.40;99.90
12436;DHT22;6282;51.440;6.938;2023-05-10T06:47:04;14.50;99.90
12436;DHT22;6282;51.440;6.938;2023-05-10T06:49:30;14.40;99.90
12436;DHT22;6282;51.440;6.938;2023-05-10T06:51:57;14.30;99.90
12436;DHT22;6282;51.440;6.938;2023-05-10T06:54:25;14.50;99.90
12436;DHT22;6282;51.440;6.938;2023-05-10T06:56:52;14.60;99.90
12436;DHT22;6282;51.440;6.938;2023-05-10T06:59:19;14.70;99.90
12436;DHT22;6282;51.440;6.938;2023-05-10T07:01:47;14.80;99.90
12436;DHT22;6282;51.440;6.938;2023-05-10T07:04:13;14.90;99.90
12436;DHT22;6282;51.440;6.938;2023-05-10T07:06:40;15.30;99.90
12436;DHT22;6282;51.440;6.938;2023-05-10T07:09:07;15.40;99.90
12436;DHT22;6282;51.440;6.938;2023-05-10T07:11:35;15.20;99.90
12436;DHT22;6282;51.440;6.938;2023-05-10T07:14:02;15.30;99.90
12436;DHT22;6282;51.440;6.938;2023-05-10T07:16:29;15.00;99.90
12436;DHT22;6282;51.440;6.938;2023-05-10T07:18:56;15.10;99.90
12436;DHT22;6282;51.440;6.938;2023-05-10T07:21:23;15.30;99.90
12436;DHT22;6282;51.440;6.938;2023-05-10T07:23:50;15.40;99.90
12436;DHT22;6282;51.440;6.938;2023-05-10T07:26:17;15.30;99.90
12436;DHT22;6282;51.440;6.938;2023-05-10T07:28:45;15.40;99.90
12436;DHT22;6282;51.440;6.938;2023-05-10T07:31:12;15.40;99.90
12436;DHT22;6282;51.440;6.938;2023-05-10T07:33:39;15.20;99.90
12436;DHT22;6282;51.440;6.938;2023-05-10T07:36:06;15.20;99.90
12436;DHT22;6282;51.440;6.938;2023-05-10T07:38:33;15.00;99.90
12436;DHT22;6282;51.440;6.938;2023-05-10T07:41:00;14.90;99.90
12436;DHT22;6282;51.440;6.938;2023-05-10T07:43:26;14.90;99.90
12436;DHT22;6282;51.440;6.938;2023-05-10T07:45:55;14.90;99.90
12436;DHT22;6282;51.440;6.938;2023-05-10T07:48:22;15.20;99.90
12436;DHT22;6282;51.440;6.938;2023-05-10T07:50:49;14.80;99.90
12436;DHT22;6282;51.440;6.938;2023-05-10T07:53:16;14.80;99.90
12436;DHT22;6282;51.440;6.938;2023-05-10T07:55:44;14.90;99.90
12436;DHT22;6282;51.440;6.938;2023-05-10T07:58:12;15.00;99.90
12436;DHT22;6282;51.440;6.938;2023-05-10T08:00:39;15.00;99.90
12436;DHT22;6282;51.440;6.938;2023-05-10T08:03:08;15.20;99.90
12436;DHT22;6282;51.440;6.938;2023-05-10T08:05:34;15.10;99.90
12436;DHT22;6282;51.440;6.938;2023-05-10T08:08:01;15.20;99.90
12436;DHT22;6282;51.440;6.938;2023-05-10T08:10:28;15.20;99.90
12436;DHT22;6282;51.440;6.938;2023-05-10T08:12:55;15.00;99.90
12436;DHT22;6282;51.440;6.938;2023-05-10T08:15:23;15.10;99.90
12436;DHT22;6282;51.440;6.938;2023-05-10T08:17:51;15.00;99.90
12436;DHT22;6282;51.440;6.938;2023-05-10T08:20:19;15.00;99.90
12436;DHT22;6282;51.440;6.938;2023-05-10T08:22:46;15.20;99.90
12436;DHT22;6282;51.440;6.938;2023-05-10T08:25:13;15.20;99.90
12436;DHT22;6282;51.440;6.938;2023-05-10T08:27:39;15.10;99.90
12436;DHT22;6282;51.440;6.938;2023-05-10T08:30:08;15.30;99.90
12436;DHT22;6282;51.440;6.938;2023-05-10T08:32:34;15.60;99.90
12436;DHT22;6282;51.440;6.938;2023-05-10T08:35:03;16.20;99.90
12436;DHT22;6282;51.440;6.938;2023-05-10T08:37:32;16.20;99.90
12436;DHT22;6282;51.440;6.938;2023-05-10T08:39:58;15.70;99.90
12436;DHT22;6282;51.440;6.938;2023-05-10T08:42:30;15.70;99.90
12436;DHT22;6282;51.440;6.938;2023-05-10T08:44:57;15.20;99.90
12436;DHT22;6282;51.440;6.938;2023-05-10T08:47:25;15.00;99.90
12436;DHT22;6282;51.440;6.938;2023-05-10T08:49:53;14.90;99.90
12436;DHT22;6282;51.440;6.938;2023-05-10T08:52:21;14.80;99.90
12436;DHT22;6282;51.440;6.938;2023-05-10T08:54:51;14.70;99.90
12436;DHT22;6282;51.440;6.938;2023-05-10T08:57:19;15.40;99.90
12436;DHT22;6282;51.440;6.938;2023-05-10T08:59:46;15.20;99.90
12436;DHT22;6282;51.440;6.938;2023-05-10T09:02:13;15.30;99.90
12436;DHT22;6282;51.440;6.938;2023-05-10T09:04:40;15.40;99.90
12436;DHT22;6282;51.440;6.938;2023-05-10T09:07:07;15.60;99.90
12436;DHT22;6282;51.440;6.938;2023-05-10T09:09:35;15.60;99.90
12436;DHT22;6282;51.440;6.938;2023-05-10T09:12:04;15.50;99.90
12436;DHT22;6282;51.440;6.938;2023-05-10T09:14:33;15.90;99.90
12436;DHT22;6282;51.440;6.938;2023-05-10T09:17:01;16.20;99.90
12436;DHT22;6282;51.440;6.938;2023-05-10T09:19:28;16.50;99.90
12436;DHT22;6282;51.440;6.938;2023-05-10T09:21:55;16.40;99.90
12436;DHT22;6282;51.440;6.938;2023-05-10T09:24:25;16.10;99.90
12436;DHT22;6282;51.440;6.938;2023-05-10T09:26:52;15.60;99.90
12436;DHT22;6282;51.440;6.938;2023-05-10T09:29:21;15.50;99.90
12436;DHT22;6282;51.440;6.938;2023-05-10T09:31:49;15.20;99.90
12436;DHT22;6282;51.440;6.938;2023-05-10T09:34:18;15.00;99.90
12436;DHT22;6282;51.440;6.938;2023-05-10T09:36:52;14.70;99.90
12436;DHT22;6282;51.440;6.938;2023-05-10T09:39:20;14.80;99.90
12436;DHT22;6282;51.440;6.938;2023-05-10T09:41:47;15.00;99.90
12436;DHT22;6282;51.440;6.938;2023-05-10T09:44:17;15.30;99.90
12436;DHT22;6282;51.440;6.938;2023-05-10T09:46:50;15.40;99.90
12436;DHT22;6282;51.440;6.938;2023-05-10T09:49:18;15.40;99.90
12436;DHT22;6282;51.440;6.938;2023-05-10T09:51:45;15.60;99.90
12436;DHT22;6282;51.440;6.938;2023-05-10T09:54:13;15.70;99.90
12436;DHT22;6282;51.440;6.938;2023-05-10T09:56:40;15.50;99.90
12436;DHT22;6282;51.440;6.938;2023-05-10T09:59:09;15.80;99.90
12436;DHT22;6282;51.440;6.938;2023-05-10T10:01:36;16.00;99.90
12436;DHT22;6282;51.440;6.938;2023-05-10T10:04:05;16.00;99.90
12436;DHT22;6282;51.440;6.938;2023-05-10T10:06:36;15.80;99.90
12436;DHT22;6282;51.440;6.938;2023-05-10T10:09:04;15.70;99.90
12436;DHT22;6282;51.440;6.938;2023-05-10T10:11:31;15.90;99.90
12436;DHT22;6282;51.440;6.938;2023-05-10T10:13:58;16.10;99.90
12436;DHT22;6282;51.440;6.938;2023-05-10T10:16:25;16.00;99.90
12436;DHT22;6282;51.440;6.938;2023-05-10T10:18:53;15.90;99.90
12436;DHT22;6282;51.440;6.938;2023-05-10T10:21:21;16.10;99.90
12436;DHT22;6282;51.440;6.938;2023-05-10T10:23:48;15.90;99.90
12436;DHT22;6282;51.440;6.938;2023-05-10T10:26:17;16.10;99.90
12436;DHT22;6282;51.440;6.938;2023-05-10T10:28:49;16.20;99.90
12436;DHT22;6282;51.440;6.938;2023-05-10T10:31:26;16.00;99.90
12436;DHT22;6282;51.440;6.938;2023-05-10T10:34:01;15.80;99.90
12436;DHT22;6282;51.440;6.938;2023-05-10T10:36:31;15.60;99.90
12436;DHT22;6282;51.440;6.938;2023-05-10T10:39:00;15.40;99.90
12436;DHT22;6282;51.440;6.938;2023-05-10T10:41:30;15.40;99.90
12436;DHT22;6282;51.440;6.938;2023-05-10T10:44:23;15.30;99.90
12436;DHT22;6282;51.440;6.938;2023-05-10T10:47:08;15.00;99.90
12436;DHT22;6282;51.440;6.938;2023-05-10T10:49:44;15.10;99.90
12436;DHT22;6282;51.440;6.938;2023-05-10T10:52:22;15.30;99.90
12436;DHT22;6282;51.440;6.938;2023-05-10T10:54:52;15.10;99.90
12436;DHT22;6282;51.440;6.938;2023-05-10T10:57:20;15.10;99.90
12436;DHT22;6282;51.440;6.938;2023-05-10T10:59:48;15.00;99.90
12436;DHT22;6282;51.440;6.938;2023-05-10T11:02:43;15.30;99.90
12436;DHT22;6282;51.440;6.938;2023-05-10T11:05:34;15.40;99.90
12436;DHT22;6282;51.440;6.938;2023-05-10T11:08:09;15.60;99.90
12436;DHT22;6282;51.440;6.938;2023-05-10T11:10:37;15.70;99.90
12436;DHT22;6282;51.440;6.938;2023-05-10T11:13:05;15.40;99.90
12436;DHT22;6282;51.440;6.938;2023-05-10T11:15:33;15.60;99.90
12436;DHT22;6282;51.440;6.938;2023-05-10T11:18:01;15.80;99.90
12436;DHT22;6282;51.440;6.938;2023-05-10T11:20:42;15.90;99.90
12436;DHT22;6282;51.440;6.938;2023-05-10T11:23:14;15.50;99.90
12436;DHT22;6282;51.440;6.938;2023-05-10T11:25:42;15.30;99.90
12436;DHT22;6282;51.440;6.938;2023-05-10T11:28:10;15.10;99.90
12436;DHT22;6282;51.440;6.938;2023-05-10T11:30:38;15.20;99.90
12436;DHT22;6282;51.440;6.938;2023-05-10T11:33:06;15.00;99.90
12436;DHT22;6282;51.440;6.938;2023-05-10T11:35:37;15.00;99.90
12436;DHT22;6282;51.440;6.938;2023-05-10T11:38:06;15.30;99.90
12436;DHT22;6282;51.440;6.938;2023-05-10T11:40:34;15.70;99.90
12436;DHT22;6282;51.440;6.938;2023-05-10T11:43:02;15.80;99.90
12436;DHT22;6282;51.440;6.938;2023-05-10T11:45:31;15.80;99.90
12436;DHT22;6282;51.440;6.938;2023-05-10T11:47:58;16.10;99.90
12436;DHT22;6282;51.440;6.938;2023-05-10T11:50:27;16.30;99.90
12436;DHT22;6282;51.440;6.938;2023-05-10T11:52:55;16.50;99.90
12436;DHT22;6282;51.440;6.938;2023-05-10T11:55:22;16.60;99.90
12436;DHT22;6282;51.440;6.938;2023-05-10T11:57:53;16.90;99.90
12436;DHT22;6282;51.440;6.938;2023-05-10T12:00:21;16.50;99.90
12436;DHT22;6282;51.440;6.938;2023-05-10T12:02:48;16.80;99.90
12436;DHT22;6282;51.440;6.938;2023-05-10T12:05:15;16.60;99.90
12436;DHT22;6282;51.440;6.938;2023-05-10T12:07:42;16.60;99.90
12436;DHT22;6282;51.440;6.938;2023-05-10T12:10:10;16.60;99.90
12436;DHT22;6282;51.440;6.938;2023-05-10T12:12:40;16.80;99.90
12436;DHT22;6282;51.440;6.938;2023-05-10T12:15:12;16.80;99.90
12436;DHT22;6282;51.440;6.938;2023-05-10T12:17:44;16.50;99.90
12436;DHT22;6282;51.440;6.938;2023-05-10T12:20:19;16.30;99.90
12436;DHT22;6282;51.440;6.938;2023-05-10T12:22:50;16.50;99.90
12436;DHT22;6282;51.440;6.938;2023-05-10T12:25:18;16.40;99.90
12436;DHT22;6282;51.440;6.938;2023-05-10T12:27:49;16.50;99.90
12436;DHT22;6282;51.440;6.938;2023-05-10T12:30:22;16.70;99.90
12436;DHT22;6282;51.440;6.938;2023-05-10T12:32:49;16.90;99.90
12436;DHT22;6282;51.440;6.938;2023-05-10T12:35:17;17.00;99.90
12436;DHT22;6282;51.440;6.938;2023-05-10T12:37:47;17.30;99.90
12436;DHT22;6282;51.440;6.938;2023-05-10T12:40:14;17.00;99.90
12436;DHT22;6282;51.440;6.938;2023-05-10T12:42:41;16.70;99.90
12436;DHT22;6282;51.440;6.938;2023-05-10T12:45:11;17.00;99.90
12436;DHT22;6282;51.440;6.938;2023-05-10T12:47:39;17.20;99.90
12436;DHT22;6282;51.440;6.938;2023-05-10T12:50:06;17.00;99.90
12436;DHT22;6282;51.440;6.938;2023-05-10T12:52:33;17.20;99.90
12436;DHT22;6282;51.440;6.938;2023-05-10T12:55:00;17.20;99.90
12436;DHT22;6282;51.440;6.938;2023-05-10T12:57:28;17.30;99.90
12436;DHT22;6282;51.440;6.938;2023-05-10T12:59:56;17.10;99.90
12436;DHT22;6282;51.440;6.938;2023-05-10T13:02:23;17.40;99.90
12436;DHT22;6282;51.440;6.938;2023-05-10T13:04:51;17.50;99.90
12436;DHT22;6282;51.440;6.938;2023-05-10T13:07:18;17.60;99.90
12436;DHT22;6282;51.440;6.938;2023-05-10T13:09:45;17.60;99.90
12436;DHT22;6282;51.440;6.938;2023-05-10T13:12:12;17.50;99.90
12436;DHT22;6282;51.440;6.938;2023-05-10T13:14:39;17.50;99.90
12436;DHT22;6282;51.440;6.938;2023-05-10T13:17:06;17.70;99.90
12436;DHT22;6282;51.440;6.938;2023-05-10T13:19:34;18.10;99.90
12436;DHT22;6282;51.440;6.938;2023-05-10T13:22:02;18.50;99.90
12436;DHT22;6282;51.440;6.938;2023-05-10T13:24:29;18.60;99.90
12436;DHT22;6282;51.440;6.938;2023-05-10T13:26:56;18.60;99.90
12436;DHT22;6282;51.440;6.938;2023-05-10T13:29:22;18.40;99.90
12436;DHT22;6282;51.440;6.938;2023-05-10T13:31:49;18.30;99.90
12436;DHT22;6282;51.440;6.938;2023-05-10T13:34:16;18.40;99.90
12436;DHT22;6282;51.440;6.938;2023-05-10T13:36:46;18.10;99.90
12436;DHT22;6282;51.440;6.938;2023-05-10T13:39:14;17.80;99.90
12436;DHT22;6282;51.440;6.938;2023-05-10T13:41:41;17.70;99.90
12436;DHT22;6282;51.440;6.938;2023-05-10T13:44:07;17.90;99.90
12436;DHT22;6282;51.440;6.938;2023-05-10T13:46:34;17.90;99.90
12436;DHT22;6282;51.440;6.938;2023-05-10T13:49:01;17.70;99.90
12436;DHT22;6282;51.440;6.938;2023-05-10T13:51:28;17.90;99.90
12436;DHT22;6282;51.440;6.938;2023-05-10T13:53:55;18.30;99.90
12436;DHT22;6282;51.440;6.938;2023-05-10T13:56:23;18.40;99.90
12436;DHT22;6282;51.440;6.938;2023-05-10T13:58:50;18.10;99.90
12436;DHT22;6282;51.440;6.938;2023-05-10T14:01:16;18.30;99.90
12436;DHT22;6282;51.440;6.938;2023-05-10T14:03:44;18.50;99.90
12436;DHT22;6282;51.440;6.938;2023-05-10T14:06:11;18.90;99.90
12436;DHT22;6282;51.440;6.938;2023-05-10T14:08:38;18.50;99.90
12436;DHT22;6282;51.440;6.938;2023-05-10T14:11:05;18.50;99.90
12436;DHT22;6282;51.440;6.938;2023-05-10T14:13:34;18.70;99.90
12436;DHT22;6282;51.440;6.938;2023-05-10T14:16:01;18.70;99.90
12436;DHT22;6282;51.440;6.938;2023-05-10T14:18:27;18.70;99.90
12436;DHT22;6282;51.440;6.938;2023-05-10T14:20:54;18.30;99.90
12436;DHT22;6282;51.440;6.938;2023-05-10T14:23:21;18.10;99.90
12436;DHT22;6282;51.440;6.938;2023-05-10T14:25:50;18.00;99.90
12436;DHT22;6282;51.440;6.938;2023-05-10T14:28:17;17.80;99.90
12436;DHT22;6282;51.440;6.938;2023-05-10T14:30:47;17.90;99.90
12436;DHT22;6282;51.440;6.938;2023-05-10T14:33:14;18.10;99.90
12436;DHT22;6282;51.440;6.938;2023-05-10T14:35:40;18.30;99.90
12436;DHT22;6282;51.440;6.938;2023-05-10T14:38:07;18.10;99.90
12436;DHT22;6282;51.440;6.938;2023-05-10T14:40:34;18.10;99.90
12436;DHT22;6282;51.440;6.938;2023-05-10T14:43:02;17.70;99.90
12436;DHT22;6282;51.440;6.938;2023-05-10T14:45:29;17.90;99.90
12436;DHT22;6282;51.440;6.938;2023-05-10T14:47:57;18.00;99.90
12436;DHT22;6282;51.440;6.938;2023-05-10T14:50:25;18.10;99.90
12436;DHT22;6282;51.440;6.938;2023-05-10T14:52:52;18.40;99.90
12436;DHT22;6282;51.440;6.938;2023-05-10T14:55:19;17.90;99.90
12436;DHT22;6282;51.440;6.938;2023-05-10T14:57:46;17.90;99.90
12436;DHT22;6282;51.440;6.938;2023-05-10T15:00:16;18.30;99.90
12436;DHT22;6282;51.440;6.938;2023-05-10T15:02:45;18.10;99.90
12436;DHT22;6282;51.440;6.938;2023-05-10T15:05:14;18.20;99.90
12436;DHT22;6282;51.440;6.938;2023-05-10T15:07:41;18.10;99.90
12436;DHT22;6282;51.440;6.938;2023-05-10T15:10:09;18.10;99.90
12436;DHT22;6282;51.440;6.938;2023-05-10T15:12:36;18.00;99.90
12436;DHT22;6282;51.440;6.938;2023-05-10T15:15:04;18.20;99.90
12436;DHT22;6282;51.440;6.938;2023-05-10T15:17:31;18.10;99.90
12436;DHT22;6282;51.440;6.938;2023-05-10T15:19:58;18.10;99.90
12436;DHT22;6282;51.440;6.938;2023-05-10T15:22:26;18.00;99.90
12436;DHT22;6282;51.440;6.938;2023-05-10T15:24:54;18.10;99.90
12436;DHT22;6282;51.440;6.938;2023-05-10T15:27:21;18.10;99.90
12436;DHT22;6282;51.440;6.938;2023-05-10T15:29:48;18.60;99.90
12436;DHT22;6282;51.440;6.938;2023-05-10T15:32:15;18.80;99.90
12436;DHT22;6282;51.440;6.938;2023-05-10T15:34:41;18.50;99.90
12436;DHT22;6282;51.440;6.938;2023-05-10T15:37:08;18.10;99.90
12436;DHT22;6282;51.440;6.938;2023-05-10T15:39:37;18.30;99.90
12436;DHT22;6282;51.440;6.938;2023-05-10T15:42:04;18.10;99.90
12436;DHT22;6282;51.440;6.938;2023-05-10T15:44:32;17.90;99.90
12436;DHT22;6282;51.440;6.938;2023-05-10T15:47:00;17.80;99.90
12436;DHT22;6282;51.440;6.938;2023-05-10T15:49:28;17.90;99.90
12436;DHT22;6282;51.440;6.938;2023-05-10T15:51:54;17.90;99.90
12436;DHT22;6282;51.440;6.938;2023-05-10T15:54:21;17.60;99.90